»·PEaware :: UPS2092 KPHX-KSNA

UPS2092 :: KPHX-KSNA

FLIGHT INFORMATION

Flight Status: Arrived
Operator:
United Parcel Service
More flights by this operator :: More flights under this callsign
Pilot: Will K. (13011)
Aircraft: Unknown
(B748)
More flights by this aircraft type
Origin: KPHX Phoenix Sky Harbor Intl
United States
Destination: KSNA John Wayne-Orange Co
United States
More flights between these airports :: More routes between these airports
Route: KEENS2 HRRBR EMLLD DSNEE4
File this flight plan on PilotEdge
Remarks:
Altitude:
(Current/Filed)
32,000ft
Speed:
(Current/Filed)
470kts
Departed: 08-Oct-18 07:58 PM
Arrived: 08-Oct-18 08:58 PM
Distance/Time
Traveled:
293nm/0:59
Distance/Time
To Go:
Arrived

Flight Plot

Page will automatically refresh every two minutes.

Flight plan parsing failed; only flown route is shown


Map Options




Map Legend


Flown Route
Filed Route
Departure Airport
Arrival Airport
Navaid (VOR, NDB)
Fix

Horizontal Profiles

Position Reports

Time Latitude Longitude Heading Altitude Ground
Speed
08-Oct-18 19:35 33.425638 -112.018099 90 1148ft 0kts
08-Oct-18 19:36 33.425638 -112.018099 90 1148ft 0kts
08-Oct-18 19:37 33.425638 -112.018099 90 1148ft 0kts
08-Oct-18 19:38 33.425638 -112.018099 90 1148ft 0kts
08-Oct-18 19:39 33.425638 -112.018099 90 1148ft 0kts
08-Oct-18 19:40 33.425638 -112.018099 90 1148ft 0kts
08-Oct-18 19:41 33.425638 -112.018099 90 1148ft 0kts
08-Oct-18 19:42 33.425638 -112.018099 90 1148ft 0kts
08-Oct-18 19:43 33.425638 -112.018099 90 1148ft 0kts
08-Oct-18 19:44 33.425638 -112.018099 90 1148ft 0kts
08-Oct-18 19:45 33.425638 -112.018099 90 1148ft 0kts
08-Oct-18 19:46 33.425638 -112.018099 90 1148ft 0kts
08-Oct-18 19:47 33.425638 -112.018099 90 1148ft 0kts
08-Oct-18 19:48 33.425638 -112.018099 90 1148ft 0kts
08-Oct-18 19:49 33.425638 -112.018099 90 1148ft 0kts
08-Oct-18 19:50 33.425638 -112.018099 90 1148ft 0kts
08-Oct-18 19:51 33.425638 -112.018099 90 1148ft 0kts
08-Oct-18 19:52 33.425638 -112.018099 90 1148ft 0kts
08-Oct-18 19:53 33.425670 -112.017907 69 1148ft 8kts
08-Oct-18 19:54 33.427638 -112.017881 288 1148ft 10kts
08-Oct-18 19:55 33.427737 -112.022855 270 1148ft 13kts
08-Oct-18 19:56 33.427740 -112.025983 271 1148ft 7kts
08-Oct-18 19:57 33.427748 -112.026263 273 1148ft 1kts
08-Oct-18 19:58 33.430333 -112.027000 359 1148ft 8kts
08-Oct-18 19:59 33.431028 -112.026498 89 1148ft 0kts
08-Oct-18 20:00 33.431021 -112.021672 90 1148ft 86kts
08-Oct-18 20:01 33.431746 -111.964157 88 2531ft 203kts
08-Oct-18 20:02 33.433858 -111.889791 101 4303ft 245kts
08-Oct-18 20:03 33.385348 -111.846150 190 6506ft 227kts
08-Oct-18 20:04 33.350376 -111.899249 266 8710ft 238kts
08-Oct-18 20:05 33.361206 -111.982599 273 10012ft 286kts
08-Oct-18 20:06 33.374633 -112.089167 277 11503ft 360kts
08-Oct-18 20:07 33.392498 -112.207696 276 15145ft 369kts
08-Oct-18 20:08 33.411106 -112.330728 276 18514ft 379kts
08-Oct-18 20:09 33.429393 -112.456919 276 21568ft 389kts
08-Oct-18 20:10 33.448038 -112.586704 275 24251ft 401kts
08-Oct-18 20:11 33.451852 -112.721367 268 26622ft 411kts
08-Oct-18 20:12 33.462888 -112.859901 278 28605ft 427kts
08-Oct-18 20:13 33.489295 -112.997107 278 30880ft 420kts
08-Oct-18 20:14 33.514566 -113.133271 278 31749ft 417kts
08-Oct-18 20:15 33.540051 -113.268114 278 31722ft 415kts
08-Oct-18 20:16 33.564673 -113.403438 277 31712ft 414kts
08-Oct-18 20:17 33.589374 -113.538226 278 31705ft 413kts
08-Oct-18 20:18 33.614474 -113.672327 277 31696ft 412kts
08-Oct-18 20:19 33.639108 -113.806275 277 31697ft 410kts
08-Oct-18 20:20 33.676530 -113.936040 289 31687ft 417kts
08-Oct-18 20:21 33.725919 -114.062300 288 31673ft 416kts
08-Oct-18 20:22 33.764065 -114.191938 275 31667ft 408kts
08-Oct-18 20:23 33.779191 -114.326352 273 31662ft 405kts
08-Oct-18 20:24 33.794385 -114.460915 274 31653ft 406kts
08-Oct-18 20:25 33.810240 -114.594463 274 31652ft 406kts
08-Oct-18 20:26 33.825523 -114.728914 275 31652ft 406kts
08-Oct-18 20:27 33.840524 -114.863647 275 31654ft 405kts
08-Oct-18 20:28 33.855386 -114.997497 275 31658ft 404kts
08-Oct-18 20:29 33.870022 -115.131293 276 31662ft 403kts
08-Oct-18 20:30 33.884531 -115.264600 277 31671ft 401kts
08-Oct-18 20:31 33.899567 -115.397589 277 31678ft 398kts
08-Oct-18 20:32 33.913490 -115.528802 277 31647ft 387kts
08-Oct-18 20:33 33.926056 -115.648303 276 31636ft 337kts
08-Oct-18 20:34 33.934193 -115.762121 275 31638ft 341kts
08-Oct-18 20:35 33.942458 -115.875289 275 30548ft 334kts
08-Oct-18 20:36 33.950062 -115.984417 275 29033ft 321kts
08-Oct-18 20:37 33.957359 -116.092536 275 27439ft 345kts
08-Oct-18 20:38 33.963771 -116.206088 269 25699ft 333kts
08-Oct-18 20:39 33.950972 -116.314816 264 23960ft 327kts
08-Oct-18 20:40 33.937755 -116.422235 264 21921ft 325kts
08-Oct-18 20:41 33.924409 -116.528847 265 20772ft 320kts
08-Oct-18 20:42 33.910848 -116.635645 264 19317ft 321kts
08-Oct-18 20:43 33.897167 -116.740638 264 17256ft 318kts
08-Oct-18 20:44 33.885340 -116.846831 265 15390ft 319kts
08-Oct-18 20:45 33.873746 -116.951975 265 13520ft 319kts
08-Oct-18 20:46 33.862046 -117.057295 264 11918ft 306kts
08-Oct-18 20:47 33.852238 -117.148497 265 11311ft 251kts
08-Oct-18 20:48 33.843029 -117.230241 265 9694ft 248kts
08-Oct-18 20:49 33.833689 -117.311872 265 8942ft 246kts
08-Oct-18 20:50 33.824399 -117.392975 265 8005ft 244kts
08-Oct-18 20:51 33.811158 -117.473332 254 7949ft 247kts
08-Oct-18 20:52 33.810448 -117.551272 282 6445ft 235kts
08-Oct-18 20:53 33.824855 -117.627499 291 5009ft 233kts
08-Oct-18 20:54 33.849616 -117.699884 292 4308ft 232kts
08-Oct-18 20:55 33.848175 -117.768466 218 3716ft 226kts
08-Oct-18 20:56 33.796548 -117.792461 197 3218ft 172kts
08-Oct-18 20:57 33.757248 -117.816589 209 2134ft 151kts
08-Oct-18 20:58 33.721034 -117.840678 205 887ft 146kts
08-Oct-18 20:59 33.685410 -117.862732 206 171ft 143kts
08-Oct-18 21:00 33.669393 -117.871839 132 69ft 3kts
08-Oct-18 21:01 33.671503 -117.868537 32 69ft 16kts
08-Oct-18 21:02 33.673853 -117.865867 116 69ft 9kts
08-Oct-18 21:03 33.673756 -117.865637 116 69ft 0kts
08-Oct-18 21:04 33.673756 -117.865637 116 69ft 0kts
08-Oct-18 21:05 33.673756 -117.865637 116 69ft 0kts

Navigation Log

Ident Type
Flight plan parsing failed, navigation log unavailable